1B2 weather

Katama Airpark
Edgartown, Massachusetts, United States

Public forecast

Using degrees Fahrenheit for public forecast. Weather courtesy of forecast.io.

Closest aviation weather report (METAR) to Katama Airpark

Closest report is Martha's Vineyard Airport, 4.6 nm (8.4 km) WNW. Retrieved 2019/12/06 16:53 UTC (60 minutes ago):

KMVY 061653Z 22009G17KT 10SM SCT075 04/M04 A3007 RMK AO2 SLP183 T00441044

Closest aviation forecast (TAF) to Katama Airpark

Closest forecast is Cape Cod Coast Guard Air Station, 18.0 nm (33.4 km) N. Retrieved 2019/12/06 12:24 UTC (5 hours ago):

TAF KFMH 061122Z 0612/0712 28012KT P6SM BKN250 FM061900 23008KT P6SM VCSH OVC050 FM062100 22008KT 6SM -SNRA OVC035 FM070100 23012G20KT P6SM OVC040 FM070800 32009KT P6SM FEW150